Time;durP1;ratioP1;P1;durP2;ratioP2;P2;SDS_P1;SDS_P2;PMS_P1;PMS_P2;Temp;Humidity;BMP_temperature;BMP_pressure;BME280_temperature;BME280_humidity;BME280_pressure;Samples;Min_cycle;Max_cycle;Signal;HPM_P1;HPM_P2
2021/04/06 00:01:00;;;;;;;21.83;2.63;;;;;;;2.61;71.73;101261.81;5063964;28;20097;-75
2021/04/06 00:03:29;;;;;;;21.73;2.22;;;;;;;2.64;72.24;101267.66;5063195;28;20135;-75
2021/04/06 00:06:02;;;;;;;21.40;1.92;;;;;;;2.73;72.02;101295.66;5070272;28;20145;-75
2021/04/06 00:08:30;;;;;;;29.13;3.25;;;;;;;2.65;72.60;101276.28;5064905;28;20559;-75
2021/04/06 00:10:59;;;;;;;16.67;1.92;;;;;;;2.67;73.41;101285.63;5086513;28;20052;-75
2021/04/06 00:13:29;;;;;;;22.48;2.08;;;;;;;2.69;74.45;101275.19;5060719;28;20498;-75
2021/04/06 00:15:55;;;;;;;21.77;2.42;;;;;;;2.65;74.60;101290.06;5056339;28;20150;-75
2021/04/06 00:18:22;;;;;;;24.85;2.30;;;;;;;2.57;75.75;101295.66;5063887;28;20079;-75
2021/04/06 00:20:50;;;;;;;27.23;2.50;;;;;;;2.35;75.38;101272.69;5074539;28;20199;-75
2021/04/06 00:23:18;;;;;;;22.45;2.72;;;;;;;2.30;76.17;101300.56;5068482;28;20117;-75
2021/04/06 00:25:48;;;;;;;20.00;3.03;;;;;;;2.10;76.37;101272.31;5083173;28;20121;-75
2021/04/06 00:28:26;;;;;;;16.63;1.95;;;;;;;2.01;75.42;101255.50;5062315;28;20055;-75
2021/04/06 00:30:54;;;;;;;14.35;1.92;;;;;;;2.02;75.26;101269.25;5070317;28;20056;-76
2021/04/06 00:33:33;;;;;;;22.52;2.35;;;;;;;1.99;75.62;101270.28;5062914;28;20051;-75
2021/04/06 00:36:02;;;;;;;15.52;2.20;;;;;;;1.95;76.71;101273.94;5070585;28;20079;-75
2021/04/06 00:38:36;;;;;;;16.85;2.45;;;;;;;1.97;77.59;101279.88;5064011;28;20052;-76
2021/04/06 00:41:05;;;;;;;22.77;2.60;;;;;;;1.96;77.66;101268.69;5066384;28;20520;-76
2021/04/06 00:43:34;;;;;;;19.52;2.45;;;;;;;2.02;78.22;101275.31;5056964;28;20125;-76
2021/04/06 00:46:03;;;;;;;25.08;2.55;;;;;;;2.07;78.28;101283.63;5068022;28;20135;-76
2021/04/06 00:48:31;;;;;;;23.55;3.35;;;;;;;2.07;77.89;101277.63;5058225;28;20047;-75
2021/04/06 00:51:11;;;;;;;20.20;2.00;;;;;;;2.09;78.18;101261.09;5077627;28;20060;-76
2021/04/06 00:53:55;;;;;;;33.45;3.55;;;;;;;2.13;78.17;101267.78;5061188;28;20341;-76
2021/04/06 00:56:24;;;;;;;22.70;2.67;;;;;;;2.12;77.67;101263.53;5050547;28;20056;-76
2021/04/06 00:58:51;;;;;;;;;;;;;;;2.23;77.71;101262.13;5067038;28;20071;-77
2021/04/06 01:01:29;;;;;;;28.77;3.00;;;;;;;2.21;76.71;101263.97;5083292;28;19924;-76
2021/04/06 01:03:58;;;;;;;17.88;2.83;;;;;;;2.20;76.72;101267.50;5067594;28;20072;-76
2021/04/06 01:06:25;;;;;;;22.98;2.95;;;;;;;2.17;76.57;101263.28;5059409;28;20056;-77
2021/04/06 01:08:53;;;;;;;21.10;2.92;;;;;;;2.15;76.67;101265.94;5066633;28;20515;-76
2021/04/06 01:11:21;;;;;;;26.15;3.05;;;;;;;2.22;77.41;101269.06;5067100;28;20056;-77
2021/04/06 01:13:48;;;;;;;27.30;3.03;;;;;;;2.17;77.62;101273.63;5078792;28;20427;-76
2021/04/06 01:16:14;;;;;;;26.17;3.20;;;;;;;2.18;78.02;101267.56;5069961;28;20052;-76
2021/04/06 01:18:41;;;;;;;28.35;3.33;;;;;;;2.13;77.91;101277.31;5068618;28;20057;-76
2021/04/06 01:21:10;;;;;;;24.45;3.28;;;;;;;2.13;77.90;101272.97;5069045;28;20056;-76
2021/04/06 01:23:38;;;;;;;25.77;3.05;;;;;;;2.10;77.56;101273.13;5058274;28;20058;-76
2021/04/06 01:26:10;;;;;;;17.33;2.33;;;;;;;2.15;77.67;101284.06;5074433;28;20123;-76
2021/04/06 01:28:37;;;;;;;35.75;4.22;;;;;;;2.11;77.37;101277.38;5045318;28;20109;-76
2021/04/06 01:31:08;;;;;;;36.28;3.85;;;;;;;2.08;77.27;101279.28;5070837;28;20048;-76
2021/04/06 01:33:35;;;;;;;27.33;3.03;;;;;;;2.09;77.44;101273.22;5083276;28;20601;-76
2021/04/06 01:36:07;;;;;;;22.73;2.83;;;;;;;2.06;77.04;101278.53;5079498;28;20519;-76
2021/04/06 01:38:37;;;;;;;25.30;3.83;;;;;;;2.11;77.38;101266.22;5069413;28;20301;-76
2021/04/06 01:41:04;;;;;;;25.92;2.38;;;;;;;2.09;77.25;101266.28;5076266;28;20048;-77
2021/04/06 01:43:32;;;;;;;28.35;2.85;;;;;;;2.08;76.77;101262.03;5077217;28;20113;-77
2021/04/06 01:46:05;;;;;;;19.70;2.72;;;;;;;2.07;77.25;101255.19;5060806;28;20049;-75
2021/04/06 01:48:33;;;;;;;32.55;3.35;;;;;;;2.07;76.46;101256.94;5063765;28;20513;-75
2021/04/06 01:51:00;;;;;;;26.73;3.10;;;;;;;2.03;76.81;101258.84;5049663;28;20048;-76
2021/04/06 01:53:26;;;;;;;32.25;2.85;;;;;;;2.08;77.23;101261.19;5055191;28;20461;-75
2021/04/06 01:55:59;;;;;;;28.42;3.08;;;;;;;2.08;76.81;101262.03;5073658;28;20090;-75
2021/04/06 01:58:27;;;;;;;35.13;3.50;;;;;;;2.11;76.83;101267.03;5063046;28;20419;-76
2021/04/06 02:01:18;;;;;;;26.85;2.92;;;;;;;2.13;76.82;101265.19;5073518;28;20052;-76
2021/04/06 02:03:51;;;;;;;23.02;2.85;;;;;;;2.17;76.57;101273.63;5072314;28;20056;-75
2021/04/06 02:06:17;;;;;;;30.55;3.33;;;;;;;2.14;76.24;101263.47;5075406;28;20056;-75
2021/04/06 02:08:51;;;;;;;20.23;3.60;;;;;;;2.15;76.68;101263.38;5039546;28;20060;-75
2021/04/06 02:11:30;;;;;;;39.72;4.03;;;;;;;2.15;76.75;101254.78;5066665;28;20048;-75
2021/04/06 02:14:20;;;;;;;19.95;3.17;;;;;;;2.14;75.60;101256.53;5061667;28;20465;-75
2021/04/06 02:16:57;;;;;;;29.08;3.42;;;;;;;2.08;74.86;101254.28;5075244;28;20124;-75
2021/04/06 02:19:34;;;;;;;37.45;3.55;;;;;;;2.14;75.92;101253.94;5057981;28;20051;-76
2021/04/06 02:22:09;;;;;;;27.92;3.67;;;;;;;2.17;75.44;101253.75;5070004;28;20085;-76
2021/04/06 02:24:44;;;;;;;18.58;2.63;;;;;;;2.16;75.52;101251.28;5086354;28;20590;-76
2021/04/06 02:27:18;;;;;;;28.73;3.30;;;;;;;2.15;75.18;101247.00;5083721;28;20063;-75
2021/04/06 02:29:56;;;;;;;40.03;4.93;;;;;;;2.12;75.10;101249.78;5068425;28;20117;-76
2021/04/06 02:32:25;;;;;;;26.63;2.55;;;;;;;2.11;75.58;101258.44;5078856;28;20048;-76
2021/04/06 02:34:54;;;;;;;26.98;2.75;;;;;;;2.11;75.79;101254.09;5065154;28;20059;-76
2021/04/06 02:37:27;;;;;;;29.95;3.40;;;;;;;2.08;75.03;101256.00;5063478;28;20052;-76
2021/04/06 02:39:59;;;;;;;32.38;3.50;;;;;;;2.00;74.99;101250.41;5085807;28;20056;-76
2021/04/06 02:42:32;;;;;;;27.90;3.00;;;;;;;2.01;75.35;101262.44;5079413;28;20129;-76
2021/04/06 02:45:04;;;;;;;29.45;2.85;;;;;;;1.98;74.58;101266.84;5068205;28;20062;-75
2021/04/06 02:47:32;;;;;;;28.15;3.60;;;;;;;1.88;74.37;101260.50;5057588;28;20150;-76
2021/04/06 02:49:58;;;;;;;25.77;3.25;;;;;;;1.98;75.31;101268.63;5061384;28;20105;-75
2021/04/06 02:52:25;;;;;;;29.20;3.35;;;;;;;1.89;74.16;101276.84;5066696;28;20105;-76
2021/04/06 02:54:52;;;;;;;21.02;2.85;;;;;;;1.98;75.30;101279.78;5068451;28;20056;-77
2021/04/06 02:57:23;;;;;;;27.33;3.55;;;;;;;1.94;74.13;101274.84;5065805;28;20048;-75
2021/04/06 02:59:49;;;;;;;22.52;2.65;;;;;;;1.90;73.60;101287.13;5061721;28;20838;-75
2021/04/06 03:02:16;;;;;;;24.15;3.03;;;;;;;1.91;73.37;101296.53;5060976;28;20056;-76
2021/04/06 03:04:44;;;;;;;26.30;2.25;;;;;;;1.94;74.25;101290.38;5061841;28;20060;-75
2021/04/06 03:07:24;;;;;;;20.20;3.05;;;;;;;1.92;74.22;101290.47;5083540;28;20490;-75
2021/04/06 03:09:59;;;;;;;33.78;3.50;;;;;;;1.96;73.64;101293.72;5083562;28;20059;-75
2021/04/06 03:12:30;;;;;;;23.27;3.03;;;;;;;1.92;73.23;101300.81;5063793;28;20684;-76
2021/04/06 03:15:03;;;;;;;14.95;2.45;;;;;;;1.97;73.00;101303.97;5064025;28;20414;-75
2021/04/06 03:17:45;;;;;;;13.90;2.30;;;;;;;1.98;73.38;101299.66;5059147;28;20048;-75
2021/04/06 03:20:13;;;;;;;17.92;2.25;;;;;;;2.03;73.79;101297.66;5063117;28;20835;-75
2021/04/06 03:22:39;;;;;;;20.85;2.88;;;;;;;2.00;73.27;101284.91;5065444;28;20084;-75
2021/04/06 03:25:06;;;;;;;22.77;2.50;;;;;;;2.02;73.33;101306.34;5072839;28;20048;-75
2021/04/06 03:27:33;;;;;;;30.88;3.10;;;;;;;2.05;73.47;101307.94;5087964;28;20044;-75
2021/04/06 03:30:01;;;;;;;20.42;2.58;;;;;;;1.92;73.65;101320.66;5072701;28;20060;-75
2021/04/06 03:32:27;;;;;;;20.27;2.80;;;;;;;1.80;75.26;101303.19;5086732;28;20053;-74
2021/04/06 03:34:54;;;;;;;19.08;2.25;;;;;;;1.76;75.91;101289.56;5083727;28;20052;-74
2021/04/06 03:37:23;;;;;;;22.45;2.65;;;;;;;1.67;76.10;101272.78;5078140;28;20063;-75
2021/04/06 03:39:51;;;;;;;23.42;2.28;;;;;;;1.64;76.58;101272.91;5072187;28;20059;-77
2021/04/06 03:42:25;;;;;;;12.35;1.92;;;;;;;1.63;76.06;101275.56;5055308;28;20393;-77
2021/04/06 03:45:10;;;;;;;12.65;2.10;;;;;;;1.61;76.58;101272.22;5082507;28;20051;-75
2021/04/06 03:47:58;;;;;;;13.82;2.00;;;;;;;1.55;76.54;101279.41;5095019;28;20044;-77
2021/04/06 03:50:35;;;;;;;;;;;;;;;1.57;76.25;101284.50;5087890;28;20059;-77
2021/04/06 03:53:04;;;;;;;16.05;2.85;;;;;;;1.55;76.68;101279.41;5090636;28;20299;-77
2021/04/06 03:55:31;;;;;;;14.27;2.08;;;;;;;1.52;76.58;101273.53;5057550;28;20419;-76
2021/04/06 03:58:13;;;;;;;20.50;2.25;;;;;;;1.52;76.23;101276.97;5087316;27;20047;-77
2021/04/06 04:00:40;;;;;;;21.60;1.92;;;;;;;1.31;76.35;101275.44;5094127;28;20066;-77
2021/04/06 04:03:07;;;;;;;9.80;1.73;;;;;;;1.24;76.93;101271.50;5082768;28;20055;-77
2021/04/06 04:05:36;;;;;;;15.00;2.10;;;;;;;1.29;77.33;101272.09;5083955;28;20063;-77
2021/04/06 04:08:03;;;;;;;18.08;2.20;;;;;;;1.28;77.04;101271.25;5059004;28;20052;-77
2021/04/06 04:10:29;;;;;;;20.35;2.45;;;;;;;1.21;76.63;101287.16;5053638;28;20056;-77
2021/04/06 04:12:55;;;;;;;23.33;2.08;;;;;;;1.23;77.33;101269.81;5067636;28;20760;-77
2021/04/06 04:15:21;;;;;;;14.68;2.28;;;;;;;1.27;77.69;101285.09;5081194;28;20095;-77
2021/04/06 04:17:49;;;;;;;29.20;2.45;;;;;;;1.16;77.98;101279.63;5089599;28;20141;-77
2021/04/06 04:20:17;;;;;;;25.25;2.60;;;;;;;1.25;78.28;101286.06;5085162;28;20517;-77
2021/04/06 04:22:43;;;;;;;16.90;2.77;;;;;;;1.23;78.90;101280.97;5072160;28;20060;-77
2021/04/06 04:25:10;;;;;;;16.60;2.45;;;;;;;1.25;78.47;101280.91;5087092;28;20756;-77
2021/04/06 04:27:38;;;;;;;16.65;2.05;;;;;;;1.25;78.78;101278.31;5095251;28;20043;-78
2021/04/06 04:30:05;;;;;;;26.77;2.55;;;;;;;1.21;78.47;101276.81;5072453;27;20077;-78
2021/04/06 04:32:36;;;;;;;22.67;2.22;;;;;;;1.19;78.10;101277.69;5074822;28;20052;-78
2021/04/06 04:35:04;;;;;;;16.83;2.50;;;;;;;1.21;78.08;101271.63;5093280;28;20052;-78
2021/04/06 04:37:30;;;;;;;17.48;2.65;;;;;;;1.22;78.34;101275.91;5083999;28;20085;-78
2021/04/06 04:39:56;;;;;;;14.45;1.77;;;;;;;1.21;78.13;101261.28;5093834;28;20053;-78
2021/04/06 04:42:30;;;;;;;11.93;1.55;;;;;;;1.26;78.01;101270.50;5073535;28;20064;-78
2021/04/06 04:44:56;;;;;;;14.98;1.30;;;;;;;1.30;78.11;101276.38;5090306;28;20056;-78
2021/04/06 04:47:23;;;;;;;24.65;2.25;;;;;;;1.29;78.12;101285.00;5065905;28;20149;-77
2021/04/06 04:49:49;;;;;;;30.40;2.92;;;;;;;1.38;78.50;101289.75;5064229;28;20060;-77
2021/04/06 04:52:15;;;;;;;18.52;2.03;;;;;;;1.46;78.43;101297.94;5049367;28;20083;-77
2021/04/06 04:54:41;;;;;;;22.15;2.22;;;;;;;1.54;78.34;101300.16;5064108;28;20086;-77
2021/04/06 04:57:07;;;;;;;24.58;2.78;;;;;;;1.58;78.21;101299.09;5075350;28;20147;-78
2021/04/06 04:59:33;;;;;;;15.30;2.10;;;;;;;1.63;78.21;101294.53;5071547;28;20052;-78
2021/04/06 05:01:59;;;;;;;23.48;2.45;;;;;;;1.69;78.25;101301.16;5070892;28;20056;-77
2021/04/06 05:04:25;;;;;;;28.17;3.00;;;;;;;1.68;77.66;101294.28;5073978;28;20057;-77
2021/04/06 05:06:51;;;;;;;18.20;2.60;;;;;;;1.67;77.21;101284.88;5085446;28;20101;-77
2021/04/06 05:09:17;;;;;;;15.57;2.75;;;;;;;1.70;77.41;101287.28;5088121;28;20056;-78
2021/04/06 05:11:43;;;;;;;15.75;2.50;;;;;;;1.60;76.78;101280.91;5075901;28;20048;-78
2021/04/06 05:14:09;;;;;;;17.10;2.58;;;;;;;1.49;76.89;101273.69;5072574;28;20051;-78
2021/04/06 05:16:36;;;;;;;20.23;3.28;;;;;;;1.44;76.93;101275.69;5069702;28;20052;-78
2021/04/06 05:19:02;;;;;;;21.05;3.10;;;;;;;1.52;77.03;101287.28;5070901;28;20052;-80
2021/04/06 05:21:28;;;;;;;18.98;2.58;;;;;;;1.49;77.11;101284.03;5075432;28;22579;-77
2021/04/06 05:23:54;;;;;;;14.07;2.65;;;;;;;1.46;77.06;101286.78;5066759;28;20075;-77
2021/04/06 05:26:20;;;;;;;20.83;2.58;;;;;;;1.47;76.65;101284.13;5068545;28;20109;-78
2021/04/06 05:28:47;;;;;;;17.10;2.60;;;;;;;1.53;77.69;101293.28;5056824;28;20048;-78
2021/04/06 05:31:14;;;;;;;13.18;2.20;;;;;;;1.39;76.61;101283.63;5056147;28;20056;-74
2021/04/06 05:33:40;;;;;;;14.75;3.05;;;;;;;1.37;76.84;101286.31;5069879;28;20468;-75
2021/04/06 05:36:09;;;;;;;20.75;2.28;;;;;;;1.43;76.77;101282.59;5087322;28;20044;-75
2021/04/06 05:38:35;;;;;;;22.48;2.55;;;;;;;1.45;77.02;101288.53;5073548;28;20051;-75
2021/04/06 05:41:01;;;;;;;16.40;2.33;;;;;;;1.45;76.89;101285.94;5059090;28;20060;-76
2021/04/06 05:43:28;;;;;;;13.07;2.33;;;;;;;1.31;76.42;101278.03;5047815;28;20451;-75
2021/04/06 05:45:54;;;;;;;15.43;2.67;;;;;;;1.31;76.41;101281.47;5059160;28;20056;-75
2021/04/06 05:48:22;;;;;;;10.85;2.28;;;;;;;1.25;76.56;101286.06;5073485;28;20411;-75
2021/04/06 05:50:53;;;;;;;9.63;2.17;;;;;;;1.28;76.58;101288.53;5074960;28;20052;-75
2021/04/06 05:53:21;;;;;;;19.38;2.88;;;;;;;1.26;76.69;101285.19;5079843;28;20057;-76
2021/04/06 05:55:48;;;;;;;19.17;2.67;;;;;;;1.26;76.63;101291.19;5055438;28;20134;-75
2021/04/06 05:58:14;;;;;;;15.98;2.90;;;;;;;1.23;76.46;101286.16;5078167;28;20056;-74
2021/04/06 06:00:40;;;;;;;15.98;2.70;;;;;;;1.27;76.80;101298.00;5080032;28;20074;-74
2021/04/06 06:03:08;;;;;;;25.50;3.20;;;;;;;1.20;76.72;101296.66;5069617;28;20048;-74
2021/04/06 06:05:35;;;;;;;13.82;2.97;;;;;;;1.24;76.95;101294.75;5076915;28;20342;-74
2021/04/06 06:08:07;;;;;;;23.20;3.13;;;;;;;1.26;76.71;101298.94;5059046;28;20048;-74
2021/04/06 06:10:35;;;;;;;16.35;2.80;;;;;;;1.31;76.66;101296.97;5072204;28;20048;-74
2021/04/06 06:13:13;;;;;;;20.50;3.17;;;;;;;1.35;76.60;101297.63;5069462;28;20056;-75
2021/04/06 06:15:39;;;;;;;26.30;3.33;;;;;;;1.44;76.80;101293.78;5083649;28;20476;-74
2021/04/06 06:18:06;;;;;;;26.20;3.63;;;;;;;1.51;77.26;101289.94;5076531;28;20040;-74
2021/04/06 06:20:35;;;;;;;17.10;2.75;;;;;;;1.57;76.46;101293.09;5065210;28;20063;-74
2021/04/06 06:23:21;;;;;;;24.80;3.05;;;;;;;1.64;76.22;101285.84;5066870;28;20059;-75
2021/04/06 06:26:02;;;;;;;18.55;3.22;;;;;;;1.67;75.94;101287.47;5057018;28;20438;-75
2021/04/06 06:28:29;;;;;;;20.55;2.78;;;;;;;1.74;75.78;101284.47;5064810;28;20048;-76
2021/04/06 06:30:57;;;;;;;22.30;2.75;;;;;;;1.72;75.57;101294.03;5077677;28;20467;-75
2021/04/06 06:33:29;;;;;;;16.20;2.97;;;;;;;1.76;75.41;101294.72;5081449;28;20047;-75
2021/04/06 06:36:00;;;;;;;13.40;2.22;;;;;;;1.87;76.07;101292.44;5077487;28;20055;-75
2021/04/06 06:38:33;;;;;;;18.00;2.72;;;;;;;1.91;75.02;101291.38;5079049;28;20044;-75
2021/04/06 06:41:14;;;;;;;20.38;3.13;;;;;;;1.94;75.25;101287.78;5048842;28;20051;-76
2021/04/06 06:43:42;;;;;;;26.42;2.70;;;;;;;2.03;75.42;101296.84;5060242;28;20053;-75
2021/04/06 06:46:22;;;;;;;16.65;3.03;;;;;;;2.05;74.19;101300.16;5081961;28;20081;-77
2021/04/06 06:48:56;;;;;;;17.83;2.70;;;;;;;2.01;74.07;101283.13;5082881;28;20068;-76
2021/04/06 06:51:30;;;;;;;15.98;3.15;;;;;;;2.07;73.58;101288.00;5080777;28;20396;-77
2021/04/06 06:53:56;;;;;;;15.75;2.00;;;;;;;2.09;73.95;101292.16;5053394;28;20060;-77
2021/04/06 06:57:04;;;;;;;10.95;1.90;;;;;;;2.05;73.23;101297.59;5085395;28;20396;-76
2021/04/06 06:59:38;;;;;;;13.23;2.30;;;;;;;2.11;73.83;101290.31;5066807;28;20117;-77
2021/04/06 07:02:22;;;;;;;17.38;2.15;;;;;;;2.22;73.78;101294.13;5075504;28;20491;-76
2021/04/06 07:04:49;;;;;;;14.18;2.50;;;;;;;2.08;72.96;101287.91;5063372;28;20557;-76
2021/04/06 07:07:16;;;;;;;14.18;2.53;;;;;;;2.17;73.33;101295.19;5080289;28;20530;-76
2021/04/06 07:09:44;;;;;;;14.10;2.72;;;;;;;2.25;73.55;101296.53;5061036;28;20545;-76
2021/04/06 07:12:14;;;;;;;16.88;3.05;;;;;;;2.29;74.43;101293.69;5084453;28;20048;-77
2021/04/06 07:14:41;;;;;;;21.80;3.22;;;;;;;2.40;73.70;101295.72;5084080;28;20101;-76
2021/04/06 07:17:09;;;;;;;15.00;2.40;;;;;;;2.46;73.54;101316.09;5087452;28;20104;-76
2021/04/06 07:19:43;;;;;;;15.98;2.63;;;;;;;2.45;72.54;101293.75;5077984;28;20040;-76
2021/04/06 07:22:13;;;;;;;14.85;2.10;;;;;;;2.48;73.71;101296.16;5065441;28;20048;-77
2021/04/06 07:24:41;;;;;;;12.27;2.40;;;;;;;2.50;73.05;101301.25;5064993;28;20063;-77
2021/04/06 07:27:13;;;;;;;;;;;;;;;2.55;72.95;101292.31;5059175;28;20392;-77
2021/04/06 07:29:41;;;;;;;8.45;1.75;;;;;;;2.55;72.91;101296.66;5079802;28;19934;-77
2021/04/06 07:32:13;;;;;;;12.00;2.60;;;;;;;2.65;72.83;101291.81;5052668;28;20060;-77
2021/04/06 07:34:42;;;;;;;15.07;2.42;;;;;;;2.73;73.36;101285.28;5061041;28;20056;-77
2021/04/06 07:37:08;;;;;;;12.80;2.55;;;;;;;2.71;72.81;101281.13;5080116;28;20056;-77
2021/04/06 07:39:35;;;;;;;13.18;2.55;;;;;;;2.60;72.19;101284.28;5055841;28;20067;-78
2021/04/06 07:42:02;;;;;;;14.65;2.78;;;;;;;2.56;71.99;101275.84;5089419;28;20379;-77
2021/04/06 07:44:30;;;;;;;11.10;2.25;;;;;;;2.64;71.84;101283.19;5081088;28;20051;-77
2021/04/06 07:46:56;;;;;;;13.05;2.75;;;;;;;2.65;71.20;101284.06;5081278;28;20077;-77
2021/04/06 07:49:25;;;;;;;12.45;2.97;;;;;;;2.79;71.67;101280.69;5057817;28;20125;-77
2021/04/06 07:51:52;;;;;;;;;;;;;;;2.80;71.56;101274.59;5084040;28;20052;-78
2021/04/06 07:54:20;;;;;;;25.23;2.65;;;;;;;2.86;71.95;101272.50;5068694;28;19935;-77
2021/04/06 07:56:54;;;;;;;16.00;2.70;;;;;;;2.98;72.37;101283.94;5080012;28;20059;-76
2021/04/06 07:59:20;;;;;;;24.35;3.05;;;;;;;3.04;71.63;101278.41;5079044;28;20048;-77
2021/04/06 08:01:55;;;;;;;12.55;2.30;;;;;;;2.99;71.36;101288.19;5075617;28;20062;-77
2021/04/06 08:04:25;;;;;;;9.55;2.15;;;;;;;2.99;71.60;101288.19;5072504;28;20419;-77
2021/04/06 08:06:57;;;;;;;8.88;1.85;;;;;;;2.95;70.61;101294.47;5051344;28;20677;-78
2021/04/06 08:09:33;;;;;;;13.93;1.85;;;;;;;2.89;70.86;101285.28;5088247;28;20080;-77
2021/04/06 08:12:25;;;;;;;10.20;1.75;;;;;;;2.77;70.88;101280.78;5070386;28;20082;-77
2021/04/06 08:15:09;;;;;;;12.15;3.05;;;;;;;2.86;71.60;101290.66;5077154;28;20044;-79
2021/04/06 08:17:35;;;;;;;11.75;2.47;;;;;;;2.94;71.05;101285.88;5067960;28;20056;-77
2021/04/06 08:20:05;;;;;;;16.48;2.25;;;;;;;2.97;69.99;101277.91;5086955;28;20095;-77
2021/04/06 08:22:37;;;;;;;10.85;2.05;;;;;;;3.11;69.14;101284.06;5082992;28;20661;-77
2021/04/06 08:25:24;;;;;;;8.30;1.67;;;;;;;3.15;67.29;101283.81;5085980;28;20044;-77
2021/04/06 08:27:54;;;;;;;12.35;2.40;;;;;;;3.26;67.10;101282.38;5044202;28;20125;-77
2021/04/06 08:30:26;;;;;;;7.18;1.27;;;;;;;3.46;66.13;101279.47;5072923;28;20052;-77
2021/04/06 08:32:58;;;;;;;7.72;1.63;;;;;;;3.77;66.90;101282.84;5062730;28;20109;-77
2021/04/06 08:35:43;;;;;;;7.90;1.40;;;;;;;3.91;66.39;101292.41;5081681;28;20056;-76
2021/04/06 08:38:32;;;;;;;12.25;3.17;;;;;;;3.86;65.40;101289.25;5075437;28;20047;-77
2021/04/06 08:41:30;;;;;;;9.80;1.42;;;;;;;3.70;65.15;101282.38;5039040;28;20052;-77
2021/04/06 08:44:00;;;;;;;7.57;1.40;;;;;;;3.56;65.83;101285.78;5082945;28;20048;-77
2021/04/06 08:46:33;;;;;;;7.55;1.67;;;;;;;3.59;65.38;101283.91;5070257;28;20052;-75
2021/04/06 08:48:59;;;;;;;6.07;1.95;;;;;;;3.78;67.04;101279.31;5073389;28;20080;-75
2021/04/06 08:51:28;;;;;;;9.90;1.75;;;;;;;3.92;66.46;101265.50;5068234;28;20077;-75
2021/04/06 08:53:59;;;;;;;9.60;1.98;;;;;;;4.14;66.88;101278.88;5080134;28;20125;-75
2021/04/06 08:56:28;;;;;;;9.73;1.42;;;;;;;4.26;66.23;101282.50;5063350;28;20817;-76
2021/04/06 08:59:35;;;;;;;6.65;1.20;;;;;;;4.66;66.07;101274.78;5056468;28;20082;-76
2021/04/06 09:02:12;;;;;;;8.68;1.23;;;;;;;4.83;64.85;101276.34;5004344;28;20548;-76
2021/04/06 09:04:40;;;;;;;6.93;1.42;;;;;;;4.66;63.07;101277.41;5058679;28;20049;-76
2021/04/06 09:07:19;;;;;;;9.07;1.20;;;;;;;4.58;64.17;101279.66;5087629;28;20071;-75
2021/04/06 09:09:46;;;;;;;5.82;1.42;;;;;;;4.48;63.68;101270.75;5059423;28;20102;-76
2021/04/06 09:12:13;;;;;;;9.90;1.52;;;;;;;4.25;62.58;101270.41;5070210;28;20056;-76
2021/04/06 09:14:41;;;;;;;8.82;1.42;;;;;;;4.64;64.44;101292.25;5064424;28;20048;-77
2021/04/06 09:17:07;;;;;;;6.40;1.45;;;;;;;4.72;62.06;101270.97;5071820;28;20075;-77
2021/04/06 09:19:35;;;;;;;10.43;1.02;;;;;;;4.89;62.11;101262.13;5071877;28;20929;-76
2021/04/06 09:22:04;;;;;;;4.10;0.98;;;;;;;5.10;63.35;101260.72;5066057;28;20051;-76
2021/04/06 09:24:31;;;;;;;6.90;1.38;;;;;;;5.24;61.76;101256.38;5084317;28;20221;-77
2021/04/06 09:26:59;;;;;;;10.88;1.40;;;;;;;5.27;60.38;101250.97;5075042;28;20063;-76
2021/04/06 09:29:29;;;;;;;5.57;1.30;;;;;;;5.30;59.14;101245.56;5063570;28;20054;-76
2021/04/06 09:32:10;;;;;;;7.93;1.23;;;;;;;5.57;59.60;101240.31;5064625;28;20048;-76
2021/04/06 09:34:38;;;;;;;7.68;1.60;;;;;;;5.85;59.51;101233.22;5054018;28;20077;-76
2021/04/06 09:37:08;;;;;;;8.85;1.08;;;;;;;5.91;56.81;101225.78;5078581;28;20066;-77
2021/04/06 09:39:36;;;;;;;5.55;1.50;;;;;;;6.25;57.48;101227.84;5065267;28;20086;-76
2021/04/06 09:42:05;;;;;;;8.00;1.30;;;;;;;6.66;58.87;101227.47;5071746;28;20051;-76
2021/04/06 09:44:36;;;;;;;6.07;1.48;;;;;;;6.71;57.87;101228.00;5064548;28;20773;-76
2021/04/06 09:47:07;;;;;;;10.57;1.73;;;;;;;6.28;55.45;101241.50;5073991;28;20076;-75
2021/04/06 09:49:36;;;;;;;8.82;1.50;;;;;;;6.10;58.16;101235.81;5057543;28;20096;-76
2021/04/06 09:52:11;;;;;;;11.50;2.20;;;;;;;5.71;59.20;101253.19;5069860;28;20052;-76
2021/04/06 09:54:42;;;;;;;14.82;1.45;;;;;;;5.32;60.51;101247.13;5084566;28;20052;-76
2021/04/06 09:57:10;;;;;;;13.13;2.22;;;;;;;5.15;63.63;101243.06;5070211;28;20450;-77
2021/04/06 09:59:38;;;;;;;5.20;1.30;;;;;;;5.04;61.16;101245.53;5052348;28;20103;-77
2021/04/06 10:02:12;;;;;;;9.35;1.15;;;;;;;5.31;61.85;101239.41;5064302;28;20055;-76
2021/04/06 10:04:47;;;;;;;9.88;1.55;;;;;;;5.60;60.85;101244.44;5076589;28;20060;-76
2021/04/06 10:07:17;;;;;;;9.32;1.35;;;;;;;5.77;59.09;101244.16;5058721;28;20056;-76
2021/04/06 10:09:52;;;;;;;4.63;1.30;;;;;;;6.11;60.36;101245.25;5063319;28;20342;-77
2021/04/06 10:12:21;;;;;;;8.43;1.35;;;;;;;6.10;56.02;101228.00;5076946;28;20498;-78
2021/04/06 10:14:48;;;;;;;7.03;1.65;;;;;;;6.34;58.02;101232.41;5085643;28;20051;-77
2021/04/06 10:17:18;;;;;;;4.40;1.30;;;;;;;6.23;55.33;101234.94;5079286;28;20131;-78
2021/04/06 10:20:07;;;;;;;5.75;1.23;;;;;;;6.50;58.12;101234.75;5068178;28;20044;-77
2021/04/06 10:22:47;;;;;;;12.30;1.63;;;;;;;6.91;58.97;101223.94;5070158;28;20396;-77
2021/04/06 10:25:20;;;;;;;8.13;1.23;;;;;;;7.30;58.47;101208.88;5084965;28;20052;-77
2021/04/06 10:27:50;;;;;;;11.00;1.25;;;;;;;7.15;54.11;101207.41;5079057;28;20133;-77
2021/04/06 10:30:37;;;;;;;6.45;1.58;;;;;;;7.09;54.31;101192.22;5071001;28;20060;-76
2021/04/06 10:33:06;;;;;;;5.85;1.60;;;;;;;6.79;55.40;101198.75;5074813;28;20388;-76
2021/04/06 10:35:34;;;;;;;8.75;1.85;;;;;;;6.86;55.00;101184.34;5060053;28;20059;-76
2021/04/06 10:38:04;;;;;;;6.65;1.35;;;;;;;6.59;55.54;101196.78;5078843;28;20289;-78
2021/04/06 10:40:39;;;;;;;8.32;1.33;;;;;;;6.33;55.63;101179.47;5088223;28;20048;-76
2021/04/06 10:43:11;;;;;;;11.45;1.80;;;;;;;6.72;55.11;101174.06;5081743;28;20048;-76
2021/04/06 10:45:41;;;;;;;14.13;1.70;;;;;;;7.09;55.71;101181.78;5067685;28;20892;-76
2021/04/06 10:48:17;;;;;;;9.63;1.73;;;;;;;7.07;53.42;101170.63;5084192;28;20056;-76
2021/04/06 10:50:46;;;;;;;9.18;1.65;;;;;;;6.85;53.34;101155.75;5071592;28;20056;-76
2021/04/06 10:53:24;;;;;;;11.07;2.45;;;;;;;6.91;55.49;101183.97;5062098;28;20055;-76
2021/04/06 10:56:08;;;;;;;8.23;1.35;;;;;;;5.67;59.69;101191.88;5064549;28;20044;-76
2021/04/06 10:58:38;;;;;;;9.80;2.67;;;;;;;5.15;62.08;101172.84;5054208;28;20077;-76
2021/04/06 11:01:13;;;;;;;4.63;1.00;;;;;;;4.70;62.92;101187.09;5076173;28;20539;-77
2021/04/06 11:03:43;;;;;;;6.43;1.65;;;;;;;4.54;65.34;101195.03;5068110;28;20071;-76
2021/04/06 11:06:17;;;;;;;10.75;2.03;;;;;;;4.34;66.55;101183.31;5072058;28;20057;-77
2021/04/06 11:08:46;;;;;;;9.07;1.50;;;;;;;4.30;66.74;101187.03;5059890;28;20059;-77
2021/04/06 11:11:17;;;;;;;11.75;1.38;;;;;;;4.32;66.00;101167.84;5066846;28;20465;-76
2021/04/06 11:13:43;;;;;;;9.45;1.25;;;;;;;4.77;66.53;101164.16;5057511;28;20063;-76
2021/04/06 11:16:10;;;;;;;8.50;1.45;;;;;;;5.18;65.19;101163.16;5062849;28;20059;-76
2021/04/06 11:18:37;;;;;;;5.20;1.20;;;;;;;5.66;64.29;101163.34;5068329;28;20252;-76
2021/04/06 11:21:04;;;;;;;4.90;1.52;;;;;;;5.99;61.82;101169.78;5078874;28;20052;-76
2021/04/06 11:23:30;;;;;;;7.85;1.63;;;;;;;6.25;61.34;101157.50;5070370;28;20465;-76
2021/04/06 11:25:56;;;;;;;9.75;1.63;;;;;;;6.75;61.31;101155.59;5068440;28;20075;-76
2021/04/06 11:28:23;;;;;;;5.57;1.45;;;;;;;6.82;59.23;101145.53;5059885;28;20666;-77
2021/04/06 11:30:49;;;;;;;6.97;2.03;;;;;;;7.21;58.63;101135.66;5065468;28;20110;-76
2021/04/06 11:33:15;;;;;;;10.02;1.85;;;;;;;7.60;60.38;101130.94;5066546;28;20491;-77
2021/04/06 11:35:41;;;;;;;8.95;1.63;;;;;;;7.57;55.85;101124.19;5079825;28;20048;-76
2021/04/06 11:38:08;;;;;;;7.30;2.22;;;;;;;7.82;55.78;101136.16;5075222;28;20145;-76
2021/04/06 11:40:34;;;;;;;11.68;2.13;;;;;;;8.17;57.35;101121.22;5086062;28;20052;-77
2021/04/06 11:43:00;;;;;;;11.85;1.95;;;;;;;8.18;55.14;101133.34;5060045;28;20139;-77
2021/04/06 11:45:26;;;;;;;11.25;1.65;;;;;;;7.71;55.73;101152.66;5084469;28;20053;-76